createdAt,value
2018-04-22T00:01:01.581Z,101522.30
2018-04-22T00:03:32.084Z,101516.70
2018-04-22T00:06:47.718Z,101506.78
2018-04-22T00:09:20.738Z,101509.86
2018-04-22T00:11:52.614Z,101505.13
2018-04-22T00:14:23.493Z,101499.73
2018-04-22T00:16:55.304Z,101500.73
2018-04-22T00:19:29.565Z,101499.90
2018-04-22T00:22:36.444Z,101502.67
2018-04-22T00:25:08.526Z,101504.53
2018-04-22T00:27:44.449Z,101503.77
2018-04-22T00:30:16.277Z,101509.11
2018-04-22T00:32:48.738Z,101506.33
2018-04-22T00:35:21.911Z,101501.54
2018-04-22T00:37:56.331Z,101502.09
2018-04-22T00:40:28.281Z,101498.45
2018-04-22T00:43:00.254Z,101500.17
2018-04-22T00:45:32.275Z,101495.34
2018-04-22T00:48:04.264Z,101501.77
2018-04-22T00:50:36.484Z,101498.27
2018-04-22T00:53:08.483Z,101495.28
2018-04-22T00:55:40.529Z,101491.85
2018-04-22T00:58:12.489Z,101499.94
2018-04-22T01:00:45.972Z,101498.30
2018-04-22T01:03:18.492Z,101496.12
2018-04-22T01:05:50.491Z,101500.55
2018-04-22T01:08:22.308Z,101493.83
2018-04-22T01:10:56.348Z,101490.15
2018-04-22T01:20:02.673Z,101493.06
2018-04-22T01:22:36.578Z,101492.14
2018-04-22T01:25:07.078Z,101494.41
2018-04-22T01:27:40.409Z,101492.53
2018-04-22T01:30:13.607Z,101488.43
2018-04-22T01:38:17.269Z,101493.09
2018-04-22T01:42:41.606Z,101497.31
2018-04-22T01:45:13.526Z,101501.43
2018-04-22T01:47:45.292Z,101493.05
2018-04-22T01:50:17.776Z,101491.75
2018-04-22T01:52:51.501Z,101491.95
2018-04-22T01:55:24.747Z,101498.67
2018-04-22T01:57:56.603Z,101495.03
2018-04-22T02:00:27.489Z,101496.53
2018-04-22T02:02:59.281Z,101490.52
2018-04-22T02:05:31.238Z,101495.04
2018-04-22T02:08:03.257Z,101495.39
2018-04-22T02:10:35.217Z,101490.52
2018-04-22T02:13:34.705Z,101483.78
2018-04-22T02:16:06.598Z,101484.20
2018-04-22T02:18:39.692Z,101485.70
2018-04-22T02:21:11.902Z,101487.84
2018-04-22T02:23:44.682Z,101486.70
2018-04-22T02:26:16.572Z,101491.48
2018-04-22T02:28:47.085Z,101491.05
2018-04-22T02:31:18.923Z,101490.99
2018-04-22T02:33:50.584Z,101491.02
2018-04-22T02:36:21.382Z,101495.72
2018-04-22T02:38:53.258Z,101502.30
2018-04-22T02:43:10.584Z,101508.95
2018-04-22T02:45:41.340Z,101507.20
2018-04-22T02:48:13.262Z,101507.00
2018-04-22T02:50:45.261Z,101509.33
2018-04-22T02:53:17.432Z,101509.69
2018-04-22T02:55:49.280Z,101503.22
2018-04-22T02:58:21.238Z,101509.38
2018-04-22T03:00:53.424Z,101514.23
2018-04-22T03:03:25.507Z,101512.16
2018-04-22T03:05:57.280Z,101514.77
2018-04-22T03:08:29.285Z,101509.67
2018-04-22T03:11:02.769Z,101516.61
2018-04-22T03:13:34.574Z,101517.67
2018-04-22T03:16:06.692Z,101516.91
2018-04-22T03:18:40.902Z,101515.81
2018-04-22T03:21:14.711Z,101520.94
2018-04-22T03:23:46.657Z,101528.20
2018-04-22T03:26:20.428Z,101521.33
2018-04-22T03:28:52.314Z,101527.47
2018-04-22T03:31:27.477Z,101526.44
2018-04-22T03:34:00.469Z,101529.19
2018-04-22T03:36:35.518Z,101527.67
2018-04-22T03:39:08.236Z,101536.52
2018-04-22T03:44:20.482Z,101550.53
2018-04-22T03:46:52.291Z,101549.86
2018-04-22T03:49:25.501Z,101548.26
2018-04-22T03:51:58.845Z,101556.17
2018-04-22T03:54:30.614Z,101558.41
2018-04-22T03:57:01.506Z,101558.95
2018-04-22T03:59:33.494Z,101562.37
2018-04-22T04:02:05.492Z,101570.08
2018-04-22T04:04:37.493Z,101569.22
2018-04-22T04:14:31.763Z,101582.50
2018-04-22T04:17:03.596Z,101582.67
2018-04-22T04:19:40.122Z,101581.80
2018-04-22T04:22:23.495Z,101586.73
2018-04-22T04:25:07.498Z,101582.98
2018-04-22T04:27:51.498Z,101581.88
2018-04-22T04:30:23.939Z,101585.28
2018-04-22T04:32:55.589Z,101582.58
2018-04-22T04:35:26.502Z,101582.11
2018-04-22T04:37:58.506Z,101580.49
2018-04-22T04:40:32.524Z,101583.14
2018-04-22T04:43:05.292Z,101590.63
2018-04-22T04:45:37.512Z,101587.54
2018-04-22T04:48:09.285Z,101592.39
2018-04-22T04:50:42.522Z,101595.30
2018-04-22T04:53:15.509Z,101594.45
2018-04-22T04:55:47.504Z,101589.11
2018-04-22T04:58:19.284Z,101585.33
2018-04-22T05:00:52.549Z,101587.95
2018-04-22T05:03:24.514Z,101588.53
2018-04-22T05:05:56.509Z,101593.91
2018-04-22T05:08:28.511Z,101586.55
2018-04-22T05:11:45.643Z,101592.97
2018-04-22T05:14:17.557Z,101592.87
2018-04-22T05:16:49.422Z,101587.77
2018-04-22T05:19:21.264Z,101589.42
2018-04-22T05:23:12.255Z,101585.19
2018-04-22T05:25:45.549Z,101583.13
2018-04-22T05:28:18.621Z,101576.75
2018-04-22T05:30:51.725Z,101577.08
2018-04-22T05:33:34.792Z,101572.97
2018-04-22T05:37:28.584Z,101570.13
2018-04-22T05:39:59.392Z,101564.46
2018-04-22T05:42:31.271Z,101563.13
2018-04-22T05:45:03.247Z,101565.59
2018-04-22T05:48:48.528Z,101562.79
2018-04-22T05:51:22.556Z,101565.03
2018-04-22T05:53:54.721Z,101565.66
2018-04-22T05:56:28.527Z,101565.59
2018-04-22T05:59:00.511Z,101566.86
2018-04-22T06:01:33.918Z,101560.97
2018-04-22T06:04:06.242Z,101567.34
2018-04-22T06:06:39.734Z,101564.02
2018-04-22T06:09:12.721Z,101559.35
2018-04-22T06:11:44.593Z,101557.19
2018-04-22T06:14:16.565Z,101556.44
2018-04-22T06:16:49.779Z,101553.34
2018-04-22T06:19:21.575Z,101552.80
2018-04-22T06:23:17.475Z,101555.91
2018-04-22T06:25:49.245Z,101556.23
2018-04-22T06:28:21.269Z,101556.56
2018-04-22T06:30:56.617Z,101558.04
2018-04-22T06:33:30.018Z,101550.73
2018-04-22T06:36:02.666Z,101550.55
2018-04-22T06:38:37.549Z,101546.77
2018-04-22T06:41:09.283Z,101545.66
2018-04-22T06:43:41.285Z,101537.66
2018-04-22T06:46:14.663Z,101542.78
2018-04-22T06:48:45.483Z,101537.56
2018-04-22T06:51:17.279Z,101539.24
2018-04-22T06:53:49.567Z,101539.55
2018-04-22T06:56:20.093Z,101535.77
2018-04-22T06:58:52.211Z,101541.36
2018-04-22T07:01:25.746Z,101539.39
2018-04-22T07:03:57.932Z,101535.27
2018-04-22T07:06:29.574Z,101539.91
2018-04-22T07:11:26.268Z,101532.78
2018-04-22T07:13:58.249Z,101530.98
2018-04-22T07:16:30.262Z,101528.22
2018-04-22T07:19:03.490Z,101529.87
2018-04-22T07:22:32.699Z,101521.67
2018-04-22T07:25:05.812Z,101520.55
2018-04-22T07:27:38.509Z,101517.75
2018-04-22T07:30:11.263Z,101514.18
2018-04-22T07:32:45.507Z,101510.01
2018-04-22T07:38:58.244Z,101510.51
2018-04-22T07:45:15.633Z,101514.66
2018-04-22T07:47:48.633Z,101513.33
2018-04-22T07:50:22.534Z,101512.22
2018-04-22T07:52:53.386Z,101512.80
2018-04-22T07:55:25.360Z,101503.47
2018-04-22T07:57:58.594Z,101503.05
2018-04-22T08:00:30.963Z,101502.14
2018-04-22T08:03:03.504Z,101498.48
2018-04-22T08:05:36.507Z,101501.36
2018-04-22T08:08:08.500Z,101502.12
2018-04-22T08:10:39.091Z,101497.94
2018-04-22T08:13:11.236Z,101495.40
2018-04-22T08:15:43.860Z,101496.73
2018-04-22T08:18:15.575Z,101491.71
2018-04-22T08:20:48.926Z,101494.64
2018-04-22T08:24:15.483Z,101489.11
2018-04-22T08:26:48.054Z,101489.86
2018-04-22T08:29:20.751Z,101489.59
2018-04-22T08:31:52.571Z,101491.71
2018-04-22T08:34:24.233Z,101498.42
2018-04-22T08:36:58.222Z,101490.59
2018-04-22T08:39:31.598Z,101491.13
2018-04-22T08:42:03.499Z,101490.31
2018-04-22T08:44:36.710Z,101490.95
2018-04-22T08:49:58.050Z,101482.62
2018-04-22T08:52:35.046Z,101474.97
2018-04-22T08:55:07.255Z,101481.48
2018-04-22T08:57:39.233Z,101475.94
2018-04-22T09:00:11.242Z,101476.24
2018-04-22T09:03:16.788Z,101475.39
2018-04-22T09:05:48.603Z,101474.48
2018-04-22T09:08:19.481Z,101467.98
2018-04-22T09:10:53.283Z,101468.73
2018-04-22T09:13:25.253Z,101467.19
2018-04-22T09:15:57.259Z,101462.59
2018-04-22T09:18:29.725Z,101461.37
2018-04-22T09:21:01.602Z,101464.45
2018-04-22T09:23:32.507Z,101455.67
2018-04-22T09:26:04.517Z,101459.39
2018-04-22T09:28:36.503Z,101461.50
2018-04-22T09:31:08.713Z,101453.42
2018-04-22T09:33:40.624Z,101453.72
2018-04-22T09:36:14.751Z,101462.23
2018-04-22T09:38:47.764Z,101463.72
2018-04-22T09:41:20.924Z,101456.92
2018-04-22T09:43:53.045Z,101458.06
2018-04-22T09:46:26.589Z,101454.61
2018-04-22T09:48:59.401Z,101454.28
2018-04-22T09:51:31.523Z,101450.50
2018-04-22T09:54:02.380Z,101454.33
2018-04-22T09:56:34.537Z,101453.61
2018-04-22T09:59:06.618Z,101455.64
2018-04-22T10:01:39.534Z,101456.00
2018-04-22T10:05:45.224Z,101449.74
2018-04-22T10:08:17.275Z,101451.63
2018-04-22T10:11:42.723Z,101448.31
2018-04-22T10:14:15.718Z,101446.22
2018-04-22T10:16:47.580Z,101445.44
2018-04-22T10:19:20.506Z,101448.52
2018-04-22T10:21:53.072Z,101444.83
2018-04-22T10:24:26.607Z,101453.82
2018-04-22T10:26:57.099Z,101449.22
2018-04-22T10:29:29.544Z,101449.92
2018-04-22T10:32:00.389Z,101446.44
2018-04-22T10:35:36.575Z,101450.82
2018-04-22T10:38:07.308Z,101451.86
2018-04-22T10:40:38.383Z,101451.80
2018-04-22T10:43:10.491Z,101459.08
2018-04-22T10:45:42.264Z,101456.56
2018-04-22T10:48:15.724Z,101449.27
2018-04-22T10:50:47.586Z,101447.72
2018-04-22T10:53:18.105Z,101448.20
2018-04-22T10:55:50.240Z,101448.97
2018-04-22T10:58:23.493Z,101445.80
2018-04-22T11:00:55.270Z,101439.82
2018-04-22T11:03:27.286Z,101440.39
2018-04-22T11:08:21.578Z,101441.97
2018-04-22T11:10:53.351Z,101442.73
2018-04-22T11:13:25.535Z,101437.98
2018-04-22T11:15:58.539Z,101436.30
2018-04-22T11:18:32.616Z,101434.27
2018-04-22T11:21:04.664Z,101425.88
2018-04-22T11:23:36.546Z,101430.28
2018-04-22T11:26:09.385Z,101426.30
2018-04-22T11:28:41.539Z,101423.64
2018-04-22T11:31:13.541Z,101415.24
2018-04-22T11:33:45.639Z,101414.05
2018-04-22T11:36:16.353Z,101410.17
2018-04-22T11:38:49.529Z,101414.30
2018-04-22T11:41:21.288Z,101406.77
2018-04-22T11:43:53.252Z,101406.73
2018-04-22T11:46:25.256Z,101405.13
2018-04-22T11:48:57.536Z,101398.25
2018-04-22T11:51:28.227Z,101390.29
2018-04-22T11:54:00.628Z,101387.70
2018-04-22T11:56:33.827Z,101386.25
2018-04-22T11:59:05.302Z,101378.59
2018-04-22T12:01:37.635Z,101384.47
2018-04-22T12:06:51.724Z,101375.91
2018-04-22T12:09:22.366Z,101378.70
2018-04-22T12:11:54.544Z,101381.25
2018-04-22T12:14:27.901Z,101384.52
2018-04-22T12:17:00.372Z,101382.72
2018-04-22T12:19:32.536Z,101385.14
2018-04-22T12:22:04.538Z,101390.81
2018-04-22T12:24:35.332Z,101390.39
2018-04-22T12:27:07.539Z,101388.50
2018-04-22T12:30:40.645Z,101387.69
2018-04-22T12:33:12.538Z,101389.92
2018-04-22T12:35:43.113Z,101395.64
2018-04-22T12:38:16.748Z,101386.80
2018-04-22T12:40:48.646Z,101399.52
2018-04-22T12:43:20.552Z,101403.80
2018-04-22T12:45:52.548Z,101412.17
2018-04-22T12:48:25.543Z,101408.34
2018-04-22T12:50:57.740Z,101414.45
2018-04-22T12:53:28.561Z,101410.97
2018-04-22T12:56:00.542Z,101406.11
2018-04-22T12:58:31.282Z,101400.77
2018-04-22T13:01:03.305Z,101402.75
2018-04-22T13:03:37.121Z,101401.66
2018-04-22T13:06:09.538Z,101406.27
2018-04-22T13:08:40.363Z,101407.02
2018-04-22T13:11:12.541Z,101406.36
2018-04-22T13:18:38.883Z,101410.33
2018-04-22T13:21:12.594Z,101411.87
2018-04-22T13:23:43.385Z,101414.98
2018-04-22T13:26:17.332Z,101429.17
2018-04-22T13:28:48.405Z,101433.84
2018-04-22T13:31:20.070Z,101430.61
2018-04-22T13:35:32.896Z,101427.27
2018-04-22T13:38:05.550Z,101420.05
2018-04-22T13:42:31.901Z,101416.09
2018-04-22T13:45:04.246Z,101412.77
2018-04-22T13:47:36.545Z,101414.52
2018-04-22T13:50:07.371Z,101419.27
2018-04-22T13:52:39.507Z,101416.22
2018-04-22T13:55:11.508Z,101413.97
2018-04-22T13:57:44.514Z,101415.12
2018-04-22T14:00:17.530Z,101409.09
2018-04-22T14:02:49.507Z,101411.09
2018-04-22T14:05:23.861Z,101404.16
2018-04-22T14:07:55.652Z,101412.28
2018-04-22T14:10:27.542Z,101414.20
2018-04-22T14:12:59.545Z,101419.45
2018-04-22T14:15:33.337Z,101409.38
2018-04-22T14:18:05.545Z,101413.91
2018-04-22T14:20:37.600Z,101413.48
2018-04-22T14:23:08.394Z,101407.34
2018-04-22T14:25:40.524Z,101416.35
2018-04-22T14:28:14.603Z,101421.47
2018-04-22T14:33:04.273Z,101416.95
2018-04-22T14:35:36.270Z,101417.16
2018-04-22T14:38:09.576Z,101419.30
2018-04-22T14:40:41.530Z,101414.58
2018-04-22T14:43:14.581Z,101415.52
2018-04-22T14:45:51.306Z,101413.98
2018-04-22T14:48:24.665Z,101410.78
2018-04-22T14:50:56.687Z,101417.17
2018-04-22T14:56:13.586Z,101416.27
2018-04-22T14:58:44.717Z,101428.48
2018-04-22T15:01:16.592Z,101435.73
2018-04-22T15:03:48.358Z,101445.14
2018-04-22T15:06:20.241Z,101441.47
2018-04-22T15:08:52.243Z,101444.95
2018-04-22T15:11:24.233Z,101444.95
2018-04-22T15:13:56.487Z,101440.16
2018-04-22T15:16:29.580Z,101434.13
2018-04-22T15:19:01.327Z,101434.69
2018-04-22T15:23:33.651Z,101431.01
2018-04-22T15:26:04.332Z,101434.26
2018-04-22T15:28:36.230Z,101432.89
2018-04-22T15:31:08.316Z,101425.28
2018-04-22T15:33:40.335Z,101428.73
2018-04-22T15:36:14.243Z,101432.92
2018-04-22T15:38:47.559Z,101424.61
2018-04-22T15:41:19.488Z,101434.26
2018-04-22T15:43:52.578Z,101435.16
2018-04-22T15:46:24.511Z,101440.27
2018-04-22T15:48:57.485Z,101434.42
2018-04-22T15:51:29.593Z,101433.34
2018-04-22T15:54:01.504Z,101435.72
2018-04-22T15:56:33.492Z,101437.53
2018-04-22T15:59:05.495Z,101441.84
2018-04-22T16:01:38.586Z,101442.05
2018-04-22T16:04:10.503Z,101446.50
2018-04-22T16:06:45.405Z,101441.31
2018-04-22T16:09:17.490Z,101446.11
2018-04-22T16:11:49.496Z,101450.75
2018-04-22T16:14:22.510Z,101448.08
2018-04-22T16:16:54.578Z,101449.70
2018-04-22T16:19:25.106Z,101448.72
2018-04-22T16:21:58.579Z,101451.47
2018-04-22T16:24:30.097Z,101445.23
2018-04-22T16:27:02.256Z,101441.02
2018-04-22T16:29:34.255Z,101443.77
2018-04-22T16:32:07.241Z,101442.34
2018-04-22T16:34:39.272Z,101437.75
2018-04-22T16:37:11.288Z,101435.53
2018-04-22T16:39:43.251Z,101432.60
2018-04-22T16:42:16.103Z,101423.03
2018-04-22T16:44:48.233Z,101428.33
2018-04-22T16:47:21.633Z,101430.89
2018-04-22T16:49:53.497Z,101433.20
2018-04-22T16:52:25.478Z,101428.56
2018-04-22T16:54:57.494Z,101425.95
2018-04-22T16:57:29.243Z,101422.97
2018-04-22T17:00:01.210Z,101417.14
2018-04-22T17:02:33.606Z,101419.87
2018-04-22T17:05:05.470Z,101418.67
2018-04-22T17:07:37.249Z,101418.94
2018-04-22T17:10:09.233Z,101417.59
2018-04-22T17:12:41.560Z,101420.92
2018-04-22T17:15:13.415Z,101420.87
2018-04-22T17:17:45.242Z,101420.66
2018-04-22T17:20:19.622Z,101423.21
2018-04-22T17:22:53.260Z,101419.97
2018-04-22T17:25:25.228Z,101421.33
2018-04-22T17:27:57.107Z,101419.31
2018-04-22T17:30:30.274Z,101422.96
2018-04-22T17:33:02.496Z,101419.63
2018-04-22T17:35:34.292Z,101413.13
2018-04-22T17:38:06.236Z,101415.89
2018-04-22T17:40:38.572Z,101410.77
2018-04-22T17:43:09.064Z,101402.35
2018-04-22T17:45:40.612Z,101405.94
2018-04-22T17:48:11.479Z,101407.82
2018-04-22T17:52:36.789Z,101401.99
2018-04-22T17:55:08.606Z,101397.30
2018-04-22T17:57:39.481Z,101394.80
2018-04-22T18:00:11.298Z,101391.59
2018-04-22T18:02:43.258Z,101390.70
2018-04-22T18:05:15.305Z,101390.83
2018-04-22T18:07:47.233Z,101378.86
2018-04-22T18:10:21.270Z,101382.55
2018-04-22T18:12:54.753Z,101374.11
2018-04-22T18:15:26.583Z,101374.45
2018-04-22T18:17:57.062Z,101372.50
2018-04-22T18:20:29.272Z,101368.94
2018-04-22T18:23:01.493Z,101368.67
2018-04-22T18:25:34.520Z,101360.70
2018-04-22T18:28:07.372Z,101349.97
2018-04-22T18:30:39.308Z,101349.89
2018-04-22T18:33:11.520Z,101348.92
2018-04-22T18:35:43.291Z,101338.55
2018-04-22T18:38:15.252Z,101343.30
2018-04-22T18:45:00.574Z,101337.99
2018-04-22T18:47:31.502Z,101336.88
2018-04-22T18:50:03.498Z,101331.75
2018-04-22T18:52:35.288Z,101324.94
2018-04-22T18:55:07.263Z,101319.95
2018-04-22T18:57:40.705Z,101320.43
2018-04-22T19:00:14.283Z,101315.63
2018-04-22T19:02:46.504Z,101320.55
2018-04-22T19:05:18.559Z,101309.33
2018-04-22T19:07:49.101Z,101306.16
2018-04-22T19:10:22.248Z,101302.63
2018-04-22T19:12:55.657Z,101292.70
2018-04-22T19:15:29.919Z,101286.15
2018-04-22T19:18:01.725Z,101277.31
2018-04-22T19:20:33.611Z,101278.30
2018-04-22T19:23:04.424Z,101281.06
2018-04-22T19:25:36.616Z,101273.00
2018-04-22T19:28:08.587Z,101264.19
2018-04-22T19:30:39.479Z,101252.44
2018-04-22T19:33:12.278Z,101249.83
2018-04-22T19:35:45.627Z,101246.30
2018-04-22T19:38:16.539Z,101235.84
2018-04-22T19:40:47.383Z,101229.67
2018-04-22T19:43:19.597Z,101224.02
2018-04-22T19:45:53.771Z,101224.28
2018-04-22T19:48:27.754Z,101214.38
2018-04-22T19:50:59.620Z,101216.80
2018-04-22T19:53:31.537Z,101213.48
2018-04-22T19:56:02.277Z,101213.86
2018-04-22T19:58:34.555Z,101209.38
2018-04-22T20:01:05.929Z,101210.11
2018-04-22T20:03:37.624Z,101209.03
2018-04-22T20:06:08.500Z,101210.17
2018-04-22T20:08:39.253Z,101208.28
2018-04-22T20:11:10.239Z,101204.80
2018-04-22T20:13:42.525Z,101202.73
2018-04-22T20:16:16.690Z,101198.41
2018-04-22T20:18:48.584Z,101195.31
2018-04-22T20:21:19.493Z,101194.14
2018-04-22T20:23:50.376Z,101193.80
2018-04-22T20:26:22.544Z,101194.84
2018-04-22T20:28:54.534Z,101195.28
2018-04-22T20:32:26.723Z,101194.67
2018-04-22T20:36:28.596Z,101197.48
2018-04-22T20:39:00.660Z,101191.09
2018-04-22T20:41:34.948Z,101188.77
2018-04-22T20:44:09.641Z,101188.96
2018-04-22T20:46:41.499Z,101187.50
2018-04-22T20:49:13.491Z,101184.81
2018-04-22T20:51:45.272Z,101182.25
2018-04-22T20:55:49.228Z,101181.91
2018-04-22T20:58:22.242Z,101178.05
2018-04-22T21:00:54.366Z,101171.90
2018-04-22T21:03:26.291Z,101174.97
2018-04-22T21:05:58.280Z,101171.69
2018-04-22T21:08:30.511Z,101173.27
2018-04-22T21:11:03.269Z,101180.56
2018-04-22T21:13:35.277Z,101174.38
2018-04-22T21:16:08.751Z,101180.70
2018-04-22T21:18:42.616Z,101178.14
2018-04-22T21:21:13.498Z,101179.52
2018-04-22T21:23:45.278Z,101182.23
2018-04-22T21:26:17.263Z,101180.05
2018-04-22T21:28:51.855Z,101177.62
2018-04-22T21:31:24.390Z,101168.44
2018-04-22T21:33:56.558Z,101167.72
2018-04-22T21:36:30.098Z,101168.31
2018-04-22T21:39:02.263Z,101164.79
2018-04-22T21:46:04.540Z,101172.37
2018-04-22T21:48:36.771Z,101165.19
2018-04-22T21:51:09.687Z,101161.20
2018-04-22T21:53:41.596Z,101159.37
2018-04-22T21:56:12.132Z,101154.81
2018-04-22T21:58:44.538Z,101152.87
2018-04-22T22:01:15.270Z,101152.23
2018-04-22T22:03:46.372Z,101150.69
2018-04-22T22:06:18.545Z,101140.25
2018-04-22T22:08:50.546Z,101135.59
2018-04-22T22:11:21.121Z,101136.67
2018-04-22T22:13:53.277Z,101131.81
2018-04-22T22:16:25.271Z,101130.53
2018-04-22T22:18:57.504Z,101132.52
2018-04-22T22:21:29.613Z,101118.44
2018-04-22T22:24:00.508Z,101121.34
2018-04-22T22:26:32.504Z,101120.55
2018-04-22T22:29:04.302Z,101117.09
2018-04-22T22:31:36.598Z,101114.47
2018-04-22T22:34:07.386Z,101110.31
2018-04-22T22:36:39.505Z,101105.45
2018-04-22T22:41:28.602Z,101100.38
2018-04-22T22:43:59.486Z,101096.66
2018-04-22T22:46:33.635Z,101102.30
2018-04-22T22:49:05.602Z,101093.12
2018-04-22T22:51:37.095Z,101094.80
2018-04-22T22:54:09.252Z,101085.27
2018-04-22T22:56:41.246Z,101081.63
2018-04-22T22:59:13.649Z,101082.73
2018-04-22T23:03:46.652Z,101078.68
2018-04-22T23:06:18.721Z,101078.25
2018-04-22T23:08:52.250Z,101069.48
2018-04-22T23:11:25.623Z,101070.31
2018-04-22T23:13:57.698Z,101067.31
2018-04-22T23:16:30.369Z,101063.44
2018-04-22T23:19:02.266Z,101067.78
2018-04-22T23:21:34.246Z,101061.45
2018-04-22T23:24:06.780Z,101059.63
2018-04-22T23:28:54.547Z,101056.45
2018-04-22T23:31:25.085Z,101055.64
2018-04-22T23:33:58.434Z,101054.16
2018-04-22T23:36:30.280Z,101061.30
2018-04-22T23:39:02.247Z,101056.13
2018-04-22T23:41:34.471Z,101053.33
2018-04-22T23:44:07.792Z,101056.09
2018-04-22T23:46:41.375Z,101057.70
2018-04-22T23:49:13.490Z,101054.13
2018-04-22T23:51:46.574Z,101056.59
2018-04-22T23:54:17.400Z,101058.83
2018-04-22T23:56:48.400Z,101053.36
2018-04-22T23:59:21.259Z,101054.84
